Terminal Aerodrome Forecast
Issued by NWS

Home | Current Version | Previous Version | Text Only | Print | Product List | Glossary On
Versions: 1 2 3 4 5 6 7 8 9 10 11 12 13 14 15 16 17 18 19 20
744
FTUS46 KSEW 221503 AAA
TAFHQM
TAF AMD
KHQM 221503Z 2215/2312 05004KT 4SM BR OVC008
      TEMPO 2215/2216 2SM BR SCT002 OVC008
     FM221700 VRB04KT P6SM FEW006 SCT100 SCT200
     FM221900 24010KT P6SM BKN200=

USA.gov is the U.S. government's official web portal to all federal, state and local government web resources and services.